sensor_id;sensor_type;location;lat;lon;timestamp;temperature;humidity
52947;DHT22;68773;40.400;17.260;2023-05-07T00:00:03;18.40;75.80
52947;DHT22;68773;40.400;17.260;2023-05-07T00:02:29;18.10;75.60
52947;DHT22;68773;40.400;17.260;2023-05-07T00:04:54;18.30;75.70
52947;DHT22;68773;40.400;17.260;2023-05-07T00:07:20;18.30;76.00
52947;DHT22;68773;40.400;17.260;2023-05-07T00:09:46;18.60;76.20
52947;DHT22;68773;40.400;17.260;2023-05-07T00:12:12;18.20;76.70
52947;DHT22;68773;40.400;17.260;2023-05-07T00:14:38;18.20;77.10
52947;DHT22;68773;40.400;17.260;2023-05-07T00:17:03;18.00;77.10
52947;DHT22;68773;40.400;17.260;2023-05-07T00:19:29;18.30;77.10
52947;DHT22;68773;40.400;17.260;2023-05-07T00:21:55;18.30;76.50
52947;DHT22;68773;40.400;17.260;2023-05-07T00:24:21;17.90;76.70
52947;DHT22;68773;40.400;17.260;2023-05-07T00:26:47;18.20;76.60
52947;DHT22;68773;40.400;17.260;2023-05-07T00:29:13;17.90;76.50
52947;DHT22;68773;40.400;17.260;2023-05-07T00:31:38;18.10;76.90
52947;DHT22;68773;40.400;17.260;2023-05-07T00:34:04;18.20;76.60
52947;DHT22;68773;40.400;17.260;2023-05-07T00:36:30;17.90;76.90
52947;DHT22;68773;40.400;17.260;2023-05-07T00:38:57;17.90;76.60
52947;DHT22;68773;40.400;17.260;2023-05-07T00:41:25;17.80;77.00
52947;DHT22;68773;40.400;17.260;2023-05-07T00:43:51;18.00;77.40
52947;DHT22;68773;40.400;17.260;2023-05-07T00:46:17;17.90;77.20
52947;DHT22;68773;40.400;17.260;2023-05-07T00:48:45;18.00;77.00
52947;DHT22;68773;40.400;17.260;2023-05-07T00:51:11;17.90;77.10
52947;DHT22;68773;40.400;17.260;2023-05-07T00:53:38;17.50;77.00
52947;DHT22;68773;40.400;17.260;2023-05-07T00:56:04;17.60;78.50
52947;DHT22;68773;40.400;17.260;2023-05-07T00:58:32;17.50;78.80
52947;DHT22;68773;40.400;17.260;2023-05-07T01:00:58;17.50;77.20
52947;DHT22;68773;40.400;17.260;2023-05-07T01:03:24;17.40;75.30
52947;DHT22;68773;40.400;17.260;2023-05-07T01:05:52;17.60;75.40
52947;DHT22;68773;40.400;17.260;2023-05-07T01:08:20;17.30;75.30
52947;DHT22;68773;40.400;17.260;2023-05-07T01:10:47;17.50;76.30
52947;DHT22;68773;40.400;17.260;2023-05-07T01:13:14;17.50;75.60
52947;DHT22;68773;40.400;17.260;2023-05-07T01:15:39;17.30;76.00
52947;DHT22;68773;40.400;17.260;2023-05-07T01:18:08;17.60;76.70
52947;DHT22;68773;40.400;17.260;2023-05-07T01:20:34;17.40;76.70
52947;DHT22;68773;40.400;17.260;2023-05-07T01:23:00;17.40;77.00
52947;DHT22;68773;40.400;17.260;2023-05-07T01:25:26;17.60;76.80
52947;DHT22;68773;40.400;17.260;2023-05-07T01:27:52;17.80;77.00
52947;DHT22;68773;40.400;17.260;2023-05-07T01:30:20;17.80;77.20
52947;DHT22;68773;40.400;17.260;2023-05-07T01:33:03;17.60;76.90
52947;DHT22;68773;40.400;17.260;2023-05-07T01:35:48;17.60;77.40
52947;DHT22;68773;40.400;17.260;2023-05-07T01:38:14;17.80;77.20
52947;DHT22;68773;40.400;17.260;2023-05-07T01:40:41;17.70;77.70
52947;DHT22;68773;40.400;17.260;2023-05-07T01:43:07;17.70;78.10
52947;DHT22;68773;40.400;17.260;2023-05-07T01:45:34;17.80;77.90
52947;DHT22;68773;40.400;17.260;2023-05-07T01:48:01;17.60;78.10
52947;DHT22;68773;40.400;17.260;2023-05-07T01:50:27;17.60;78.50
52947;DHT22;68773;40.400;17.260;2023-05-07T01:52:53;17.70;80.00
52947;DHT22;68773;40.400;17.260;2023-05-07T01:55:19;17.40;82.50
52947;DHT22;68773;40.400;17.260;2023-05-07T01:57:45;17.20;82.60
52947;DHT22;68773;40.400;17.260;2023-05-07T02:00:11;17.10;83.30
52947;DHT22;68773;40.400;17.260;2023-05-07T02:02:37;17.20;83.90
52947;DHT22;68773;40.400;17.260;2023-05-07T02:05:04;16.90;85.90
52947;DHT22;68773;40.400;17.260;2023-05-07T02:07:30;16.90;87.20
52947;DHT22;68773;40.400;17.260;2023-05-07T02:09:56;17.00;88.80
52947;DHT22;68773;40.400;17.260;2023-05-07T02:12:22;16.90;90.00
52947;DHT22;68773;40.400;17.260;2023-05-07T02:14:48;17.00;90.40
52947;DHT22;68773;40.400;17.260;2023-05-07T02:17:14;16.90;90.80
52947;DHT22;68773;40.400;17.260;2023-05-07T02:19:39;16.80;90.80
52947;DHT22;68773;40.400;17.260;2023-05-07T02:22:05;17.00;91.00
52947;DHT22;68773;40.400;17.260;2023-05-07T02:24:31;17.00;90.90
52947;DHT22;68773;40.400;17.260;2023-05-07T02:26:56;17.10;90.70
52947;DHT22;68773;40.400;17.260;2023-05-07T02:29:22;17.00;90.50
52947;DHT22;68773;40.400;17.260;2023-05-07T02:31:48;17.40;90.30
52947;DHT22;68773;40.400;17.260;2023-05-07T02:34:16;17.20;90.00
52947;DHT22;68773;40.400;17.260;2023-05-07T02:36:43;17.30;89.80
52947;DHT22;68773;40.400;17.260;2023-05-07T02:39:09;17.20;89.50
52947;DHT22;68773;40.400;17.260;2023-05-07T02:41:35;17.40;89.40
52947;DHT22;68773;40.400;17.260;2023-05-07T02:44:00;17.30;89.20
52947;DHT22;68773;40.400;17.260;2023-05-07T02:46:26;17.30;89.00
52947;DHT22;68773;40.400;17.260;2023-05-07T02:48:52;17.30;89.30
52947;DHT22;68773;40.400;17.260;2023-05-07T02:51:20;17.30;89.20
52947;DHT22;68773;40.400;17.260;2023-05-07T02:53:46;17.30;88.90
52947;DHT22;68773;40.400;17.260;2023-05-07T02:56:12;17.30;88.70
52947;DHT22;68773;40.400;17.260;2023-05-07T02:58:37;17.10;88.40
52947;DHT22;68773;40.400;17.260;2023-05-07T03:01:05;17.30;88.40
52947;DHT22;68773;40.400;17.260;2023-05-07T03:03:31;17.30;88.40
52947;DHT22;68773;40.400;17.260;2023-05-07T03:05:57;17.20;88.60
52947;DHT22;68773;40.400;17.260;2023-05-07T03:08:23;17.30;88.60
52947;DHT22;68773;40.400;17.260;2023-05-07T03:10:49;17.30;88.50
52947;DHT22;68773;40.400;17.260;2023-05-07T03:13:15;17.30;88.60
52947;DHT22;68773;40.400;17.260;2023-05-07T03:15:41;17.30;88.70
52947;DHT22;68773;40.400;17.260;2023-05-07T03:18:06;17.30;88.50
52947;DHT22;68773;40.400;17.260;2023-05-07T03:20:32;17.40;88.00
52947;DHT22;68773;40.400;17.260;2023-05-07T03:22:58;16.90;90.80
52947;DHT22;68773;40.400;17.260;2023-05-07T03:25:24;16.70;91.50
52947;DHT22;68773;40.400;17.260;2023-05-07T03:27:49;16.90;91.40
52947;DHT22;68773;40.400;17.260;2023-05-07T03:30:15;16.80;91.80
52947;DHT22;68773;40.400;17.260;2023-05-07T03:32:41;17.00;91.70
52947;DHT22;68773;40.400;17.260;2023-05-07T03:35:07;17.00;91.30
52947;DHT22;68773;40.400;17.260;2023-05-07T03:37:33;17.00;91.20
52947;DHT22;68773;40.400;17.260;2023-05-07T03:39:58;17.10;91.10
52947;DHT22;68773;40.400;17.260;2023-05-07T03:42:24;17.00;91.10
52947;DHT22;68773;40.400;17.260;2023-05-07T03:44:50;17.10;91.10
52947;DHT22;68773;40.400;17.260;2023-05-07T03:47:16;17.20;91.90
52947;DHT22;68773;40.400;17.260;2023-05-07T03:49:41;17.00;91.90
52947;DHT22;68773;40.400;17.260;2023-05-07T03:52:07;17.10;91.70
52947;DHT22;68773;40.400;17.260;2023-05-07T03:54:33;17.00;91.60
52947;DHT22;68773;40.400;17.260;2023-05-07T03:56:58;17.00;91.70
52947;DHT22;68773;40.400;17.260;2023-05-07T03:59:24;17.00;92.00
52947;DHT22;68773;40.400;17.260;2023-05-07T04:01:50;17.00;92.60
52947;DHT22;68773;40.400;17.260;2023-05-07T04:04:16;17.20;92.50
52947;DHT22;68773;40.400;17.260;2023-05-07T04:06:42;17.10;92.10
52947;DHT22;68773;40.400;17.260;2023-05-07T04:09:08;16.80;92.00
52947;DHT22;68773;40.400;17.260;2023-05-07T04:11:35;16.90;91.80
52947;DHT22;68773;40.400;17.260;2023-05-07T04:14:01;16.70;91.60
52947;DHT22;68773;40.400;17.260;2023-05-07T04:16:26;16.60;91.90
52947;DHT22;68773;40.400;17.260;2023-05-07T04:18:52;16.70;91.80
52947;DHT22;68773;40.400;17.260;2023-05-07T04:21:19;16.80;91.80
52947;DHT22;68773;40.400;17.260;2023-05-07T04:23:49;16.80;91.80
52947;DHT22;68773;40.400;17.260;2023-05-07T04:26:15;16.90;91.90
52947;DHT22;68773;40.400;17.260;2023-05-07T04:28:41;17.20;92.50
52947;DHT22;68773;40.400;17.260;2023-05-07T04:31:08;17.20;92.90
52947;DHT22;68773;40.400;17.260;2023-05-07T04:33:34;17.30;93.30
52947;DHT22;68773;40.400;17.260;2023-05-07T04:36:03;17.50;93.60
52947;DHT22;68773;40.400;17.260;2023-05-07T04:38:30;17.60;93.90
52947;DHT22;68773;40.400;17.260;2023-05-07T04:40:57;17.40;93.80
52947;DHT22;68773;40.400;17.260;2023-05-07T04:43:23;17.60;93.70
52947;DHT22;68773;40.400;17.260;2023-05-07T04:45:50;17.50;93.50
52947;DHT22;68773;40.400;17.260;2023-05-07T04:48:17;17.50;93.10
52947;DHT22;68773;40.400;17.260;2023-05-07T04:50:46;17.20;92.70
52947;DHT22;68773;40.400;17.260;2023-05-07T04:53:12;17.30;92.60
52947;DHT22;68773;40.400;17.260;2023-05-07T04:55:38;17.30;92.10
52947;DHT22;68773;40.400;17.260;2023-05-07T04:58:04;17.00;92.20
52947;DHT22;68773;40.400;17.260;2023-05-07T05:00:30;17.10;92.30
52947;DHT22;68773;40.400;17.260;2023-05-07T05:02:56;16.70;92.50
52947;DHT22;68773;40.400;17.260;2023-05-07T05:05:22;16.70;92.50
52947;DHT22;68773;40.400;17.260;2023-05-07T05:07:47;17.00;92.50
52947;DHT22;68773;40.400;17.260;2023-05-07T05:10:13;17.10;93.20
52947;DHT22;68773;40.400;17.260;2023-05-07T05:12:39;17.00;93.60
52947;DHT22;68773;40.400;17.260;2023-05-07T05:15:05;17.10;93.50
52947;DHT22;68773;40.400;17.260;2023-05-07T05:17:31;17.10;93.00
52947;DHT22;68773;40.400;17.260;2023-05-07T05:19:57;17.40;92.80
52947;DHT22;68773;40.400;17.260;2023-05-07T05:22:23;17.20;92.30
52947;DHT22;68773;40.400;17.260;2023-05-07T05:24:48;17.50;92.10
52947;DHT22;68773;40.400;17.260;2023-05-07T05:27:14;17.50;92.20
52947;DHT22;68773;40.400;17.260;2023-05-07T05:29:40;17.50;92.90
52947;DHT22;68773;40.400;17.260;2023-05-07T05:32:05;17.60;92.90
52947;DHT22;68773;40.400;17.260;2023-05-07T05:34:31;17.60;92.50
52947;DHT22;68773;40.400;17.260;2023-05-07T05:36:59;17.80;92.70
52947;DHT22;68773;40.400;17.260;2023-05-07T05:39:24;17.70;93.00
52947;DHT22;68773;40.400;17.260;2023-05-07T05:41:50;17.90;93.30
52947;DHT22;68773;40.400;17.260;2023-05-07T05:44:16;18.10;93.50
52947;DHT22;68773;40.400;17.260;2023-05-07T05:46:42;18.00;93.50
52947;DHT22;68773;40.400;17.260;2023-05-07T05:49:07;18.10;93.50
52947;DHT22;68773;40.400;17.260;2023-05-07T05:51:34;18.00;93.60
52947;DHT22;68773;40.400;17.260;2023-05-07T05:53:59;18.10;93.40
52947;DHT22;68773;40.400;17.260;2023-05-07T05:56:25;18.20;93.50
52947;DHT22;68773;40.400;17.260;2023-05-07T05:58:51;18.10;93.70
52947;DHT22;68773;40.400;17.260;2023-05-07T06:01:18;18.20;93.70
52947;DHT22;68773;40.400;17.260;2023-05-07T06:03:44;18.40;93.70
52947;DHT22;68773;40.400;17.260;2023-05-07T06:06:10;18.30;93.70
52947;DHT22;68773;40.400;17.260;2023-05-07T06:08:36;18.30;93.50
52947;DHT22;68773;40.400;17.260;2023-05-07T06:11:02;18.40;93.70
52947;DHT22;68773;40.400;17.260;2023-05-07T06:13:28;18.60;94.20
52947;DHT22;68773;40.400;17.260;2023-05-07T06:15:54;18.50;93.90
52947;DHT22;68773;40.400;17.260;2023-05-07T06:18:19;18.30;94.40
52947;DHT22;68773;40.400;17.260;2023-05-07T06:20:45;18.40;94.70
52947;DHT22;68773;40.400;17.260;2023-05-07T06:23:11;18.30;95.00
52947;DHT22;68773;40.400;17.260;2023-05-07T06:25:36;18.40;95.00
52947;DHT22;68773;40.400;17.260;2023-05-07T06:28:02;18.30;95.40
52947;DHT22;68773;40.400;17.260;2023-05-07T06:30:28;18.20;94.90
52947;DHT22;68773;40.400;17.260;2023-05-07T06:32:54;18.40;94.40
52947;DHT22;68773;40.400;17.260;2023-05-07T06:35:19;18.60;94.20
52947;DHT22;68773;40.400;17.260;2023-05-07T06:37:45;18.60;93.90
52947;DHT22;68773;40.400;17.260;2023-05-07T06:40:11;18.10;95.10
52947;DHT22;68773;40.400;17.260;2023-05-07T06:42:37;18.30;95.10
52947;DHT22;68773;40.400;17.260;2023-05-07T06:45:03;18.40;95.10
52947;DHT22;68773;40.400;17.260;2023-05-07T06:47:29;18.60;95.40
52947;DHT22;68773;40.400;17.260;2023-05-07T06:49:55;18.70;95.30
52947;DHT22;68773;40.400;17.260;2023-05-07T06:52:21;18.60;94.70
52947;DHT22;68773;40.400;17.260;2023-05-07T06:54:47;18.40;95.10
52947;DHT22;68773;40.400;17.260;2023-05-07T06:57:12;18.30;95.40
52947;DHT22;68773;40.400;17.260;2023-05-07T06:59:38;18.00;96.50
52947;DHT22;68773;40.400;17.260;2023-05-07T07:02:04;18.10;96.70
52947;DHT22;68773;40.400;17.260;2023-05-07T07:04:29;18.20;96.70
52947;DHT22;68773;40.400;17.260;2023-05-07T07:06:56;18.30;96.80
52947;DHT22;68773;40.400;17.260;2023-05-07T07:09:22;18.20;96.60
52947;DHT22;68773;40.400;17.260;2023-05-07T07:11:48;18.30;96.50
52947;DHT22;68773;40.400;17.260;2023-05-07T07:14:13;18.20;95.70
52947;DHT22;68773;40.400;17.260;2023-05-07T07:16:39;18.20;95.30
52947;DHT22;68773;40.400;17.260;2023-05-07T07:19:06;18.30;94.40
52947;DHT22;68773;40.400;17.260;2023-05-07T07:21:31;18.20;94.00
52947;DHT22;68773;40.400;17.260;2023-05-07T07:23:57;18.50;94.60
52947;DHT22;68773;40.400;17.260;2023-05-07T07:26:23;18.60;93.10
52947;DHT22;68773;40.400;17.260;2023-05-07T07:28:49;18.40;91.60
52947;DHT22;68773;40.400;17.260;2023-05-07T07:31:14;18.30;93.40
52947;DHT22;68773;40.400;17.260;2023-05-07T07:33:40;18.50;93.60
52947;DHT22;68773;40.400;17.260;2023-05-07T07:36:06;18.50;92.90
52947;DHT22;68773;40.400;17.260;2023-05-07T07:38:33;18.40;92.80
52947;DHT22;68773;40.400;17.260;2023-05-07T07:40:59;18.30;93.10
52947;DHT22;68773;40.400;17.260;2023-05-07T07:43:25;18.60;92.20
52947;DHT22;68773;40.400;17.260;2023-05-07T07:45:50;18.70;92.60
52947;DHT22;68773;40.400;17.260;2023-05-07T07:48:16;18.50;92.60
52947;DHT22;68773;40.400;17.260;2023-05-07T07:50:42;19.00;91.30
52947;DHT22;68773;40.400;17.260;2023-05-07T07:53:08;18.90;90.90
52947;DHT22;68773;40.400;17.260;2023-05-07T07:55:38;18.70;90.10
52947;DHT22;68773;40.400;17.260;2023-05-07T07:58:04;18.80;89.30
52947;DHT22;68773;40.400;17.260;2023-05-07T08:00:30;18.50;89.30
52947;DHT22;68773;40.400;17.260;2023-05-07T08:02:56;18.40;90.80
52947;DHT22;68773;40.400;17.260;2023-05-07T08:05:23;18.40;91.70
52947;DHT22;68773;40.400;17.260;2023-05-07T08:07:49;18.50;90.50
52947;DHT22;68773;40.400;17.260;2023-05-07T08:10:18;18.30;89.20
52947;DHT22;68773;40.400;17.260;2023-05-07T08:12:50;18.40;89.70
52947;DHT22;68773;40.400;17.260;2023-05-07T08:15:16;18.50;87.90
52947;DHT22;68773;40.400;17.260;2023-05-07T08:17:43;18.50;90.80
52947;DHT22;68773;40.400;17.260;2023-05-07T08:20:09;18.60;91.30
52947;DHT22;68773;40.400;17.260;2023-05-07T08:22:36;18.80;92.50
52947;DHT22;68773;40.400;17.260;2023-05-07T08:25:02;19.00;92.90
52947;DHT22;68773;40.400;17.260;2023-05-07T08:27:28;18.90;91.70
52947;DHT22;68773;40.400;17.260;2023-05-07T08:29:54;18.80;94.00
52947;DHT22;68773;40.400;17.260;2023-05-07T08:32:20;18.90;92.00
52947;DHT22;68773;40.400;17.260;2023-05-07T08:34:46;18.60;92.30
52947;DHT22;68773;40.400;17.260;2023-05-07T08:37:12;18.80;92.50
52947;DHT22;68773;40.400;17.260;2023-05-07T08:39:38;18.60;89.30
52947;DHT22;68773;40.400;17.260;2023-05-07T08:42:04;18.40;90.20
52947;DHT22;68773;40.400;17.260;2023-05-07T08:44:33;18.80;91.00
52947;DHT22;68773;40.400;17.260;2023-05-07T08:47:01;18.80;90.10
52947;DHT22;68773;40.400;17.260;2023-05-07T08:49:28;18.70;89.10
52947;DHT22;68773;40.400;17.260;2023-05-07T08:51:53;18.70;89.70
52947;DHT22;68773;40.400;17.260;2023-05-07T08:54:20;18.80;88.60
52947;DHT22;68773;40.400;17.260;2023-05-07T08:56:46;18.80;88.00
52947;DHT22;68773;40.400;17.260;2023-05-07T08:59:12;19.00;90.80
52947;DHT22;68773;40.400;17.260;2023-05-07T09:01:38;19.30;91.20
52947;DHT22;68773;40.400;17.260;2023-05-07T09:04:04;19.50;91.30
52947;DHT22;68773;40.400;17.260;2023-05-07T09:06:31;19.50;91.50
52947;DHT22;68773;40.400;17.260;2023-05-07T09:08:57;19.50;91.30
52947;DHT22;68773;40.400;17.260;2023-05-07T09:11:24;19.60;90.90
52947;DHT22;68773;40.400;17.260;2023-05-07T09:13:54;19.60;90.60
52947;DHT22;68773;40.400;17.260;2023-05-07T09:16:22;19.60;90.70
52947;DHT22;68773;40.400;17.260;2023-05-07T09:18:51;19.40;91.30
52947;DHT22;68773;40.400;17.260;2023-05-07T09:21:18;19.50;90.30
52947;DHT22;68773;40.400;17.260;2023-05-07T09:23:44;19.80;91.20
52947;DHT22;68773;40.400;17.260;2023-05-07T09:26:10;19.70;91.40
52947;DHT22;68773;40.400;17.260;2023-05-07T09:28:44;19.70;90.50
52947;DHT22;68773;40.400;17.260;2023-05-07T09:31:10;19.70;89.00
52947;DHT22;68773;40.400;17.260;2023-05-07T09:33:38;20.10;86.40
52947;DHT22;68773;40.400;17.260;2023-05-07T09:36:04;19.70;87.40
52947;DHT22;68773;40.400;17.260;2023-05-07T09:38:32;19.80;87.90
52947;DHT22;68773;40.400;17.260;2023-05-07T09:41:08;19.90;90.00
52947;DHT22;68773;40.400;17.260;2023-05-07T09:43:35;20.00;90.10
52947;DHT22;68773;40.400;17.260;2023-05-07T09:46:26;20.00;90.40
52947;DHT22;68773;40.400;17.260;2023-05-07T09:48:56;20.30;90.30
52947;DHT22;68773;40.400;17.260;2023-05-07T09:51:27;20.20;84.00
52947;DHT22;68773;40.400;17.260;2023-05-07T09:53:56;20.10;81.60
52947;DHT22;68773;40.400;17.260;2023-05-07T09:56:22;20.00;84.10
52947;DHT22;68773;40.400;17.260;2023-05-07T09:58:49;20.40;85.50
52947;DHT22;68773;40.400;17.260;2023-05-07T10:01:17;20.80;83.50
52947;DHT22;68773;40.400;17.260;2023-05-07T10:03:44;20.50;83.00
52947;DHT22;68773;40.400;17.260;2023-05-07T10:06:12;20.70;84.80
52947;DHT22;68773;40.400;17.260;2023-05-07T10:08:39;20.90;80.70
52947;DHT22;68773;40.400;17.260;2023-05-07T10:11:05;20.60;80.50
52947;DHT22;68773;40.400;17.260;2023-05-07T10:13:33;21.00;76.60
52947;DHT22;68773;40.400;17.260;2023-05-07T10:16:03;20.70;75.40
52947;DHT22;68773;40.400;17.260;2023-05-07T10:18:33;20.60;74.00
52947;DHT22;68773;40.400;17.260;2023-05-07T10:21:11;20.60;74.60
52947;DHT22;68773;40.400;17.260;2023-05-07T10:23:38;20.80;75.90
52947;DHT22;68773;40.400;17.260;2023-05-07T10:26:06;20.80;75.50
52947;DHT22;68773;40.400;17.260;2023-05-07T10:28:39;20.90;78.50
52947;DHT22;68773;40.400;17.260;2023-05-07T10:33:36;21.20;77.20
52947;DHT22;68773;40.400;17.260;2023-05-07T10:36:03;21.10;78.20
52947;DHT22;68773;40.400;17.260;2023-05-07T10:38:30;21.30;79.70
52947;DHT22;68773;40.400;17.260;2023-05-07T10:40:56;21.20;80.10
52947;DHT22;68773;40.400;17.260;2023-05-07T10:43:22;21.20;81.00
52947;DHT22;68773;40.400;17.260;2023-05-07T10:46:16;21.30;82.10
52947;DHT22;68773;40.400;17.260;2023-05-07T10:51:26;20.90;86.60
52947;DHT22;68773;40.400;17.260;2023-05-07T10:56:38;20.80;88.20
52947;DHT22;68773;40.400;17.260;2023-05-07T11:02:00;20.50;89.20
52947;DHT22;68773;40.400;17.260;2023-05-07T11:04:28;20.90;88.70
52947;DHT22;68773;40.400;17.260;2023-05-07T11:15:05;20.80;90.30
52947;DHT22;68773;40.400;17.260;2023-05-07T11:17:31;20.70;90.20
52947;DHT22;68773;40.400;17.260;2023-05-07T11:20:00;21.10;90.10
52947;DHT22;68773;40.400;17.260;2023-05-07T11:25:07;21.20;90.10
52947;DHT22;68773;40.400;17.260;2023-05-07T11:27:33;21.50;90.00
52947;DHT22;68773;40.400;17.260;2023-05-07T11:29:59;22.20;89.10
52947;DHT22;68773;40.400;17.260;2023-05-07T11:32:28;22.30;88.80
52947;DHT22;68773;40.400;17.260;2023-05-07T11:34:55;22.40;88.40
52947;DHT22;68773;40.400;17.260;2023-05-07T11:37:22;22.40;86.90
52947;DHT22;68773;40.400;17.260;2023-05-07T11:39:48;22.30;87.60
52947;DHT22;68773;40.400;17.260;2023-05-07T11:42:29;22.50;86.40
52947;DHT22;68773;40.400;17.260;2023-05-07T11:44:55;22.30;87.00
52947;DHT22;68773;40.400;17.260;2023-05-07T11:47:21;22.20;87.30
52947;DHT22;68773;40.400;17.260;2023-05-07T11:49:51;22.40;87.70
52947;DHT22;68773;40.400;17.260;2023-05-07T11:52:18;22.10;88.20
52947;DHT22;68773;40.400;17.260;2023-05-07T11:54:58;22.40;86.90
52947;DHT22;68773;40.400;17.260;2023-05-07T11:57:25;22.50;87.00
52947;DHT22;68773;40.400;17.260;2023-05-07T11:59:55;22.50;85.30
52947;DHT22;68773;40.400;17.260;2023-05-07T12:02:21;22.30;86.30
52947;DHT22;68773;40.400;17.260;2023-05-07T12:04:47;22.50;87.20
52947;DHT22;68773;40.400;17.260;2023-05-07T12:07:14;22.80;86.30
52947;DHT22;68773;40.400;17.260;2023-05-07T12:09:41;22.50;87.00
52947;DHT22;68773;40.400;17.260;2023-05-07T12:12:07;22.50;86.00
52947;DHT22;68773;40.400;17.260;2023-05-07T12:14:38;22.50;85.00
52947;DHT22;68773;40.400;17.260;2023-05-07T12:17:04;22.50;82.70
52947;DHT22;68773;40.400;17.260;2023-05-07T12:19:31;22.60;84.50
52947;DHT22;68773;40.400;17.260;2023-05-07T12:21:57;22.80;84.00
52947;DHT22;68773;40.400;17.260;2023-05-07T12:24:23;23.10;81.60
52947;DHT22;68773;40.400;17.260;2023-05-07T12:26:49;22.50;84.30
52947;DHT22;68773;40.400;17.260;2023-05-07T12:29:15;22.20;85.20
52947;DHT22;68773;40.400;17.260;2023-05-07T12:31:41;22.50;86.40
52947;DHT22;68773;40.400;17.260;2023-05-07T12:34:07;22.70;83.40
52947;DHT22;68773;40.400;17.260;2023-05-07T12:36:37;22.60;84.80
52947;DHT22;68773;40.400;17.260;2023-05-07T12:39:05;22.40;84.60
52947;DHT22;68773;40.400;17.260;2023-05-07T12:41:36;22.20;85.30
52947;DHT22;68773;40.400;17.260;2023-05-07T12:44:17;22.20;87.30
52947;DHT22;68773;40.400;17.260;2023-05-07T12:46:42;22.60;85.00
52947;DHT22;68773;40.400;17.260;2023-05-07T12:49:08;22.70;82.50
52947;DHT22;68773;40.400;17.260;2023-05-07T12:51:35;23.60;83.00
52947;DHT22;68773;40.400;17.260;2023-05-07T12:54:01;22.60;82.50
52947;DHT22;68773;40.400;17.260;2023-05-07T12:56:26;22.70;83.20
52947;DHT22;68773;40.400;17.260;2023-05-07T12:58:57;22.70;85.10
52947;DHT22;68773;40.400;17.260;2023-05-07T13:01:29;23.20;82.20
52947;DHT22;68773;40.400;17.260;2023-05-07T13:03:56;23.50;82.70
52947;DHT22;68773;40.400;17.260;2023-05-07T13:06:23;22.80;83.00
52947;DHT22;68773;40.400;17.260;2023-05-07T13:08:48;22.50;82.90
52947;DHT22;68773;40.400;17.260;2023-05-07T13:11:14;22.20;83.40
52947;DHT22;68773;40.400;17.260;2023-05-07T13:13:40;22.20;82.40
52947;DHT22;68773;40.400;17.260;2023-05-07T13:16:08;22.20;82.40
52947;DHT22;68773;40.400;17.260;2023-05-07T13:18:34;22.50;83.50
52947;DHT22;68773;40.400;17.260;2023-05-07T13:21:01;22.80;82.20
52947;DHT22;68773;40.400;17.260;2023-05-07T13:23:27;23.30;81.50
52947;DHT22;68773;40.400;17.260;2023-05-07T13:25:54;23.40;81.60
52947;DHT22;68773;40.400;17.260;2023-05-07T13:28:19;23.50;78.80
52947;DHT22;68773;40.400;17.260;2023-05-07T13:30:46;23.40;77.90
52947;DHT22;68773;40.400;17.260;2023-05-07T13:33:12;23.40;77.40
52947;DHT22;68773;40.400;17.260;2023-05-07T13:35:37;23.50;79.80
52947;DHT22;68773;40.400;17.260;2023-05-07T13:38:04;23.30;81.00
52947;DHT22;68773;40.400;17.260;2023-05-07T13:40:30;23.10;78.50
52947;DHT22;68773;40.400;17.260;2023-05-07T13:42:57;23.00;81.90
52947;DHT22;68773;40.400;17.260;2023-05-07T13:45:24;23.00;81.40
52947;DHT22;68773;40.400;17.260;2023-05-07T13:47:51;23.30;80.30
52947;DHT22;68773;40.400;17.260;2023-05-07T13:50:17;22.90;79.00
52947;DHT22;68773;40.400;17.260;2023-05-07T13:52:44;23.10;83.80
52947;DHT22;68773;40.400;17.260;2023-05-07T13:55:19;23.10;81.70
52947;DHT22;68773;40.400;17.260;2023-05-07T13:57:46;22.50;85.00
52947;DHT22;68773;40.400;17.260;2023-05-07T14:00:13;22.50;84.40
52947;DHT22;68773;40.400;17.260;2023-05-07T14:02:40;22.40;85.90
52947;DHT22;68773;40.400;17.260;2023-05-07T14:05:06;22.80;85.30
52947;DHT22;68773;40.400;17.260;2023-05-07T14:07:32;22.60;84.00
52947;DHT22;68773;40.400;17.260;2023-05-07T14:09:58;22.60;85.50
52947;DHT22;68773;40.400;17.260;2023-05-07T14:12:24;22.40;85.90
52947;DHT22;68773;40.400;17.260;2023-05-07T14:14:50;22.30;85.10
52947;DHT22;68773;40.400;17.260;2023-05-07T14:17:17;22.50;85.80
52947;DHT22;68773;40.400;17.260;2023-05-07T14:19:43;22.80;85.30
52947;DHT22;68773;40.400;17.260;2023-05-07T14:22:09;22.60;86.20
52947;DHT22;68773;40.400;17.260;2023-05-07T14:24:35;22.60;86.40
52947;DHT22;68773;40.400;17.260;2023-05-07T14:27:01;22.80;86.10
52947;DHT22;68773;40.400;17.260;2023-05-07T14:29:27;23.00;85.90
52947;DHT22;68773;40.400;17.260;2023-05-07T14:31:52;23.50;84.20
52947;DHT22;68773;40.400;17.260;2023-05-07T14:34:18;23.40;84.10
52947;DHT22;68773;40.400;17.260;2023-05-07T14:36:44;23.20;84.20
52947;DHT22;68773;40.400;17.260;2023-05-07T14:39:10;23.30;84.20
52947;DHT22;68773;40.400;17.260;2023-05-07T14:41:35;23.10;84.90
52947;DHT22;68773;40.400;17.260;2023-05-07T14:44:01;23.30;84.80
52947;DHT22;68773;40.400;17.260;2023-05-07T14:46:29;23.00;84.40
52947;DHT22;68773;40.400;17.260;2023-05-07T14:48:56;23.00;83.60
52947;DHT22;68773;40.400;17.260;2023-05-07T14:51:22;23.00;84.60
52947;DHT22;68773;40.400;17.260;2023-05-07T14:53:47;22.90;85.20
52947;DHT22;68773;40.400;17.260;2023-05-07T14:56:13;22.50;85.70
52947;DHT22;68773;40.400;17.260;2023-05-07T14:58:39;22.00;86.20
52947;DHT22;68773;40.400;17.260;2023-05-07T15:01:04;22.20;85.20
52947;DHT22;68773;40.400;17.260;2023-05-07T15:03:30;22.70;86.00
52947;DHT22;68773;40.400;17.260;2023-05-07T15:05:56;22.40;82.50
52947;DHT22;68773;40.400;17.260;2023-05-07T15:08:22;22.40;83.70
52947;DHT22;68773;40.400;17.260;2023-05-07T15:10:48;22.50;85.30
52947;DHT22;68773;40.400;17.260;2023-05-07T15:13:13;22.30;84.20
52947;DHT22;68773;40.400;17.260;2023-05-07T15:15:39;22.40;85.20
52947;DHT22;68773;40.400;17.260;2023-05-07T15:18:05;22.20;84.30
52947;DHT22;68773;40.400;17.260;2023-05-07T15:20:31;22.50;85.10
52947;DHT22;68773;40.400;17.260;2023-05-07T15:22:57;22.80;84.90
52947;DHT22;68773;40.400;17.260;2023-05-07T15:25:23;22.40;84.40
52947;DHT22;68773;40.400;17.260;2023-05-07T15:27:49;22.50;84.80
52947;DHT22;68773;40.400;17.260;2023-05-07T15:30:15;22.30;83.90
52947;DHT22;68773;40.400;17.260;2023-05-07T15:32:42;21.90;85.90